sensor_id;sensor_type;location;lat;lon;timestamp;pressure;altitude;pressure_sealevel;temperature;humidity
47716;BME280;33476;50.984;3.538;2023-06-19T00:00:19;100921.16;;;22.56;67.41
47716;BME280;33476;50.984;3.538;2023-06-19T00:02:45;100919.19;;;22.58;67.43
47716;BME280;33476;50.984;3.538;2023-06-19T00:05:10;100923.41;;;22.61;67.49
47716;BME280;33476;50.984;3.538;2023-06-19T00:07:36;100930.91;;;22.65;67.37
47716;BME280;33476;50.984;3.538;2023-06-19T00:10:03;100936.66;;;22.70;67.13
47716;BME280;33476;50.984;3.538;2023-06-19T00:12:28;100936.34;;;22.74;67.17
47716;BME280;33476;50.984;3.538;2023-06-19T00:14:54;100937.06;;;22.76;67.11
47716;BME280;33476;50.984;3.538;2023-06-19T00:17:19;100943.50;;;22.73;67.35
47716;BME280;33476;50.984;3.538;2023-06-19T00:19:44;100941.28;;;22.68;67.71
47716;BME280;33476;50.984;3.538;2023-06-19T00:22:10;100940.47;;;22.68;67.73
47716;BME280;33476;50.984;3.538;2023-06-19T00:24:35;100942.56;;;22.64;67.73
47716;BME280;33476;50.984;3.538;2023-06-19T00:27:00;100940.59;;;22.66;67.65
47716;BME280;33476;50.984;3.538;2023-06-19T00:29:27;100951.19;;;22.76;67.77
47716;BME280;33476;50.984;3.538;2023-06-19T00:31:53;100949.59;;;22.83;67.26
47716;BME280;33476;50.984;3.538;2023-06-19T00:34:19;100959.16;;;22.86;67.26
47716;BME280;33476;50.984;3.538;2023-06-19T00:36:44;100954.53;;;22.78;67.12
47716;BME280;33476;50.984;3.538;2023-06-19T00:39:10;100952.88;;;22.77;66.70
47716;BME280;33476;50.984;3.538;2023-06-19T00:41:35;100956.38;;;22.78;66.31
47716;BME280;33476;50.984;3.538;2023-06-19T00:44:01;100957.88;;;22.80;65.28
47716;BME280;33476;50.984;3.538;2023-06-19T00:46:26;100960.41;;;22.82;65.08
47716;BME280;33476;50.984;3.538;2023-06-19T00:48:52;100954.66;;;22.86;64.42
47716;BME280;33476;50.984;3.538;2023-06-19T00:51:18;100963.03;;;22.91;64.29
47716;BME280;33476;50.984;3.538;2023-06-19T00:53:43;100962.50;;;22.88;63.88
47716;BME280;33476;50.984;3.538;2023-06-19T00:56:08;100954.66;;;22.86;64.05
47716;BME280;33476;50.984;3.538;2023-06-19T00:58:34;100964.47;;;22.86;63.88
47716;BME280;33476;50.984;3.538;2023-06-19T01:01:00;100970.34;;;22.89;63.97
47716;BME280;33476;50.984;3.538;2023-06-19T01:03:26;100957.56;;;22.93;63.67
47716;BME280;33476;50.984;3.538;2023-06-19T01:05:53;100959.00;;;22.87;64.06
47716;BME280;33476;50.984;3.538;2023-06-19T01:11:29;100974.41;;;22.93;63.68
47716;BME280;33476;50.984;3.538;2023-06-19T01:14:01;100974.53;;;22.92;63.87
47716;BME280;33476;50.984;3.538;2023-06-19T01:16:30;100981.00;;;22.89;64.23
47716;BME280;33476;50.984;3.538;2023-06-19T01:18:56;100985.47;;;22.89;64.08
47716;BME280;33476;50.984;3.538;2023-06-19T01:21:21;100986.31;;;22.89;64.03
47716;BME280;33476;50.984;3.538;2023-06-19T01:23:47;100986.56;;;22.96;63.83
47716;BME280;33476;50.984;3.538;2023-06-19T01:26:12;100993.72;;;22.95;64.06
47716;BME280;33476;50.984;3.538;2023-06-19T01:28:42;100995.69;;;22.93;64.13
47716;BME280;33476;50.984;3.538;2023-06-19T01:31:13;100989.53;;;22.93;63.70
47716;BME280;33476;50.984;3.538;2023-06-19T01:33:40;101005.50;;;22.83;64.23
47716;BME280;33476;50.984;3.538;2023-06-19T01:36:08;101004.31;;;22.78;64.20
47716;BME280;33476;50.984;3.538;2023-06-19T01:38:34;101000.84;;;22.67;64.27
47716;BME280;33476;50.984;3.538;2023-06-19T01:41:00;101008.84;;;22.58;64.49
47716;BME280;33476;50.984;3.538;2023-06-19T01:43:27;101021.22;;;22.49;64.29
47716;BME280;33476;50.984;3.538;2023-06-19T01:45:55;101029.25;;;22.39;64.78
47716;BME280;33476;50.984;3.538;2023-06-19T01:48:20;101024.91;;;22.38;64.27
47716;BME280;33476;50.984;3.538;2023-06-19T01:50:46;101034.19;;;22.34;64.54
47716;BME280;33476;50.984;3.538;2023-06-19T01:53:12;101038.06;;;22.40;64.00
47716;BME280;33476;50.984;3.538;2023-06-19T01:55:38;101041.69;;;22.49;63.52
47716;BME280;33476;50.984;3.538;2023-06-19T01:58:03;101040.69;;;22.50;63.49
47716;BME280;33476;50.984;3.538;2023-06-19T02:00:29;101047.00;;;22.49;63.46
47716;BME280;33476;50.984;3.538;2023-06-19T02:02:55;101056.09;;;22.56;63.00
47716;BME280;33476;50.984;3.538;2023-06-19T02:05:21;101061.13;;;22.59;62.92
47716;BME280;33476;50.984;3.538;2023-06-19T02:07:46;101069.66;;;22.62;62.68
47716;BME280;33476;50.984;3.538;2023-06-19T02:10:12;101064.19;;;22.64;62.55
47716;BME280;33476;50.984;3.538;2023-06-19T02:12:37;101072.91;;;22.56;62.66
47716;BME280;33476;50.984;3.538;2023-06-19T02:15:03;101075.91;;;22.43;63.03
47716;BME280;33476;50.984;3.538;2023-06-19T02:17:29;101073.94;;;22.36;63.36
47716;BME280;33476;50.984;3.538;2023-06-19T02:19:54;101080.53;;;22.32;63.46
47716;BME280;33476;50.984;3.538;2023-06-19T02:22:19;101080.38;;;22.33;63.47
47716;BME280;33476;50.984;3.538;2023-06-19T02:24:45;101074.22;;;22.33;63.13
47716;BME280;33476;50.984;3.538;2023-06-19T02:27:10;101075.63;;;22.37;62.63
47716;BME280;33476;50.984;3.538;2023-06-19T02:29:36;101085.97;;;22.40;62.14
47716;BME280;33476;50.984;3.538;2023-06-19T02:32:03;101085.69;;;22.33;61.84
47716;BME280;33476;50.984;3.538;2023-06-19T02:34:28;101082.34;;;22.31;61.73
47716;BME280;33476;50.984;3.538;2023-06-19T02:36:54;101085.84;;;22.32;61.77
47716;BME280;33476;50.984;3.538;2023-06-19T02:39:19;101086.69;;;22.32;61.39
47716;BME280;33476;50.984;3.538;2023-06-19T02:41:44;101095.38;;;22.34;61.22
47716;BME280;33476;50.984;3.538;2023-06-19T02:44:12;101096.34;;;22.33;60.99
47716;BME280;33476;50.984;3.538;2023-06-19T02:46:37;101101.13;;;22.30;61.04
47716;BME280;33476;50.984;3.538;2023-06-19T02:51:28;101104.81;;;22.09;61.13
47716;BME280;33476;50.984;3.538;2023-06-19T02:53:53;101112.63;;;22.01;61.57
47716;BME280;33476;50.984;3.538;2023-06-19T02:56:19;101103.22;;;21.97;61.48
47716;BME280;33476;50.984;3.538;2023-06-19T02:58:44;101109.09;;;21.91;61.61
47716;BME280;33476;50.984;3.538;2023-06-19T03:01:09;101116.22;;;21.91;61.41
47716;BME280;33476;50.984;3.538;2023-06-19T03:03:35;101114.69;;;21.88;61.49
47716;BME280;33476;50.984;3.538;2023-06-19T03:06:07;101117.66;;;21.85;61.48
47716;BME280;33476;50.984;3.538;2023-06-19T03:08:36;101130.66;;;21.78;61.45
47716;BME280;33476;50.984;3.538;2023-06-19T03:11:03;101136.38;;;21.74;61.92
47716;BME280;33476;50.984;3.538;2023-06-19T03:13:36;101133.84;;;21.63;61.97
47716;BME280;33476;50.984;3.538;2023-06-19T03:16:08;101129.50;;;21.62;61.88
47716;BME280;33476;50.984;3.538;2023-06-19T03:18:33;101134.97;;;21.60;61.92
47716;BME280;33476;50.984;3.538;2023-06-19T03:20:59;101143.50;;;21.64;61.80
47716;BME280;33476;50.984;3.538;2023-06-19T03:23:24;101146.13;;;21.54;62.04
47716;BME280;33476;50.984;3.538;2023-06-19T03:25:49;101151.72;;;21.51;62.00
47716;BME280;33476;50.984;3.538;2023-06-19T03:28:15;101157.16;;;21.49;61.76
47716;BME280;33476;50.984;3.538;2023-06-19T03:30:40;101151.84;;;21.49;61.50
47716;BME280;33476;50.984;3.538;2023-06-19T03:33:05;101155.06;;;21.43;61.31
47716;BME280;33476;50.984;3.538;2023-06-19T03:35:30;101156.44;;;21.38;61.27
47716;BME280;33476;50.984;3.538;2023-06-19T03:37:56;101161.63;;;21.39;61.17
47716;BME280;33476;50.984;3.538;2023-06-19T03:40:21;101169.19;;;21.44;60.99
47716;BME280;33476;50.984;3.538;2023-06-19T03:42:46;101168.91;;;21.47;60.70
47716;BME280;33476;50.984;3.538;2023-06-19T03:45:12;101177.88;;;21.46;60.88
47716;BME280;33476;50.984;3.538;2023-06-19T03:47:37;101180.59;;;21.35;61.23
47716;BME280;33476;50.984;3.538;2023-06-19T03:50:03;101196.13;;;21.29;61.48
47716;BME280;33476;50.984;3.538;2023-06-19T03:52:28;101194.44;;;21.28;61.70
47716;BME280;33476;50.984;3.538;2023-06-19T03:54:53;101193.69;;;21.26;61.78
47716;BME280;33476;50.984;3.538;2023-06-19T03:57:19;101196.00;;;21.31;61.88
47716;BME280;33476;50.984;3.538;2023-06-19T03:59:44;101197.66;;;21.32;61.71
47716;BME280;33476;50.984;3.538;2023-06-19T04:02:09;101198.38;;;21.34;61.67
47716;BME280;33476;50.984;3.538;2023-06-19T04:04:35;101193.78;;;21.36;61.66
47716;BME280;33476;50.984;3.538;2023-06-19T04:07:00;101199.78;;;21.38;61.67
47716;BME280;33476;50.984;3.538;2023-06-19T04:09:25;101211.25;;;21.39;61.72
47716;BME280;33476;50.984;3.538;2023-06-19T04:11:51;101208.88;;;21.36;61.72
47716;BME280;33476;50.984;3.538;2023-06-19T04:14:16;101213.22;;;21.37;61.60
47716;BME280;33476;50.984;3.538;2023-06-19T04:16:41;101210.16;;;21.41;61.59
47716;BME280;33476;50.984;3.538;2023-06-19T04:19:07;101211.72;;;21.44;61.24
47716;BME280;33476;50.984;3.538;2023-06-19T04:21:32;101218.13;;;21.41;61.27
47716;BME280;33476;50.984;3.538;2023-06-19T04:23:58;101214.44;;;21.33;61.41
47716;BME280;33476;50.984;3.538;2023-06-19T04:26:23;101213.47;;;21.34;61.33
47716;BME280;33476;50.984;3.538;2023-06-19T04:28:49;101223.53;;;21.30;61.28
47716;BME280;33476;50.984;3.538;2023-06-19T04:31:15;101223.88;;;21.25;61.35
47716;BME280;33476;50.984;3.538;2023-06-19T04:33:45;101218.34;;;21.28;61.14
47716;BME280;33476;50.984;3.538;2023-06-19T04:36:10;101216.25;;;21.32;60.94
47716;BME280;33476;50.984;3.538;2023-06-19T04:38:35;101219.19;;;21.29;60.87
47716;BME280;33476;50.984;3.538;2023-06-19T04:41:01;101218.56;;;21.25;60.79
47716;BME280;33476;50.984;3.538;2023-06-19T04:43:26;101220.25;;;21.26;60.52
47716;BME280;33476;50.984;3.538;2023-06-19T04:45:51;101221.03;;;21.28;60.15
47716;BME280;33476;50.984;3.538;2023-06-19T04:48:17;101213.25;;;21.25;60.20
47716;BME280;33476;50.984;3.538;2023-06-19T04:50:42;101225.38;;;21.18;60.58
47716;BME280;33476;50.984;3.538;2023-06-19T04:53:08;101220.81;;;21.20;60.42
47716;BME280;33476;50.984;3.538;2023-06-19T04:55:33;101223.47;;;21.20;60.31
47716;BME280;33476;50.984;3.538;2023-06-19T04:57:58;101213.06;;;21.17;60.34
47716;BME280;33476;50.984;3.538;2023-06-19T05:00:24;101220.47;;;21.14;60.58
47716;BME280;33476;50.984;3.538;2023-06-19T05:02:50;101230.13;;;21.15;60.75
47716;BME280;33476;50.984;3.538;2023-06-19T05:05:16;101229.47;;;21.22;60.40
47716;BME280;33476;50.984;3.538;2023-06-19T05:07:42;101235.13;;;21.29;60.30
47716;BME280;33476;50.984;3.538;2023-06-19T05:10:08;101238.50;;;21.31;60.07
47716;BME280;33476;50.984;3.538;2023-06-19T05:12:34;101239.63;;;21.28;60.01
47716;BME280;33476;50.984;3.538;2023-06-19T05:15:00;101241.28;;;21.29;59.90
47716;BME280;33476;50.984;3.538;2023-06-19T05:17:25;101241.47;;;21.38;59.78
47716;BME280;33476;50.984;3.538;2023-06-19T05:19:51;101241.00;;;21.33;59.88
47716;BME280;33476;50.984;3.538;2023-06-19T05:22:16;101237.38;;;21.34;59.79
47716;BME280;33476;50.984;3.538;2023-06-19T05:24:43;101238.94;;;21.36;59.74
47716;BME280;33476;50.984;3.538;2023-06-19T05:27:09;101237.97;;;21.37;59.63
47716;BME280;33476;50.984;3.538;2023-06-19T05:29:34;101234.06;;;21.41;59.45
47716;BME280;33476;50.984;3.538;2023-06-19T05:32:00;101238.16;;;21.45;59.59
47716;BME280;33476;50.984;3.538;2023-06-19T05:34:25;101230.59;;;21.50;59.62
47716;BME280;33476;50.984;3.538;2023-06-19T05:36:51;101238.56;;;21.50;59.63
47716;BME280;33476;50.984;3.538;2023-06-19T05:39:16;101240.56;;;21.58;59.24
47716;BME280;33476;50.984;3.538;2023-06-19T05:41:44;101239.47;;;21.61;59.21
47716;BME280;33476;50.984;3.538;2023-06-19T05:44:11;101242.13;;;21.61;59.29
47716;BME280;33476;50.984;3.538;2023-06-19T05:46:40;101249.81;;;21.64;59.01
47716;BME280;33476;50.984;3.538;2023-06-19T05:49:05;101253.03;;;21.67;58.87
47716;BME280;33476;50.984;3.538;2023-06-19T05:51:31;101247.47;;;21.70;58.88
47716;BME280;33476;50.984;3.538;2023-06-19T05:53:56;101246.22;;;21.74;58.86
47716;BME280;33476;50.984;3.538;2023-06-19T05:56:26;101251.00;;;21.80;58.73
47716;BME280;33476;50.984;3.538;2023-06-19T05:58:51;101263.75;;;21.86;58.75
47716;BME280;33476;50.984;3.538;2023-06-19T06:01:16;101263.44;;;21.80;58.68
47716;BME280;33476;50.984;3.538;2023-06-19T06:03:43;101274.47;;;21.75;59.07
47716;BME280;33476;50.984;3.538;2023-06-19T06:06:08;101272.63;;;21.66;58.96
47716;BME280;33476;50.984;3.538;2023-06-19T06:08:33;101282.44;;;21.66;59.25
47716;BME280;33476;50.984;3.538;2023-06-19T06:10:59;101274.06;;;21.70;59.41
47716;BME280;33476;50.984;3.538;2023-06-19T06:13:25;101274.47;;;21.75;59.06
47716;BME280;33476;50.984;3.538;2023-06-19T06:15:50;101278.56;;;21.79;58.86
47716;BME280;33476;50.984;3.538;2023-06-19T06:18:16;101280.94;;;21.82;58.83
47716;BME280;33476;50.984;3.538;2023-06-19T06:20:41;101285.72;;;21.88;58.87
47716;BME280;33476;50.984;3.538;2023-06-19T06:23:07;101287.44;;;21.99;58.34
47716;BME280;33476;50.984;3.538;2023-06-19T06:25:32;101292.81;;;22.09;58.31
47716;BME280;33476;50.984;3.538;2023-06-19T06:27:57;101296.47;;;22.18;58.45
47716;BME280;33476;50.984;3.538;2023-06-19T06:30:23;101303.75;;;22.25;58.30
47716;BME280;33476;50.984;3.538;2023-06-19T06:32:49;101306.16;;;22.28;57.98
47716;BME280;33476;50.984;3.538;2023-06-19T06:35:15;101310.06;;;22.14;58.15
47716;BME280;33476;50.984;3.538;2023-06-19T06:37:40;101304.88;;;22.13;58.44
47716;BME280;33476;50.984;3.538;2023-06-19T06:40:07;101308.22;;;22.15;58.37
47716;BME280;33476;50.984;3.538;2023-06-19T06:42:36;101307.53;;;22.13;58.27
47716;BME280;33476;50.984;3.538;2023-06-19T06:45:02;101323.94;;;22.18;57.86
47716;BME280;33476;50.984;3.538;2023-06-19T06:47:28;101319.47;;;22.19;58.06
47716;BME280;33476;50.984;3.538;2023-06-19T06:49:53;101320.47;;;22.27;57.68
47716;BME280;33476;50.984;3.538;2023-06-19T06:52:18;101322.81;;;22.30;57.49
47716;BME280;33476;50.984;3.538;2023-06-19T06:54:43;101324.94;;;22.27;57.30
47716;BME280;33476;50.984;3.538;2023-06-19T06:57:09;101321.44;;;22.26;57.50
47716;BME280;33476;50.984;3.538;2023-06-19T06:59:34;101327.16;;;22.31;57.35
47716;BME280;33476;50.984;3.538;2023-06-19T07:02:00;101338.66;;;22.32;57.04
47716;BME280;33476;50.984;3.538;2023-06-19T07:04:25;101342.75;;;22.36;56.83
47716;BME280;33476;50.984;3.538;2023-06-19T07:06:50;101342.91;;;22.44;56.92
47716;BME280;33476;50.984;3.538;2023-06-19T07:09:17;101343.59;;;22.56;56.71
47716;BME280;33476;50.984;3.538;2023-06-19T07:11:42;101338.41;;;22.64;56.69
47716;BME280;33476;50.984;3.538;2023-06-19T07:14:08;101344.03;;;22.70;56.71
47716;BME280;33476;50.984;3.538;2023-06-19T07:16:33;101340.13;;;22.84;56.10
47716;BME280;33476;50.984;3.538;2023-06-19T07:18:58;101346.88;;;22.88;55.97
47716;BME280;33476;50.984;3.538;2023-06-19T07:21:24;101347.72;;;22.89;56.08
47716;BME280;33476;50.984;3.538;2023-06-19T07:23:49;101352.34;;;22.96;55.58
47716;BME280;33476;50.984;3.538;2023-06-19T07:26:15;101361.31;;;22.95;55.80
47716;BME280;33476;50.984;3.538;2023-06-19T07:28:41;101352.19;;;22.98;55.92
47716;BME280;33476;50.984;3.538;2023-06-19T07:31:07;101361.47;;;23.04;56.08
47716;BME280;33476;50.984;3.538;2023-06-19T07:33:33;101360.47;;;23.05;55.97
47716;BME280;33476;50.984;3.538;2023-06-19T07:35:58;101356.69;;;23.07;55.87
47716;BME280;33476;50.984;3.538;2023-06-19T07:38:24;101348.13;;;23.04;55.50
47716;BME280;33476;50.984;3.538;2023-06-19T07:40:50;101336.63;;;23.03;55.52
47716;BME280;33476;50.984;3.538;2023-06-19T07:43:15;101331.72;;;23.08;55.38
47716;BME280;33476;50.984;3.538;2023-06-19T07:45:42;101327.09;;;23.10;55.27
47716;BME280;33476;50.984;3.538;2023-06-19T07:48:07;101337.31;;;23.15;55.34
47716;BME280;33476;50.984;3.538;2023-06-19T07:50:33;101341.25;;;23.20;54.90
47716;BME280;33476;50.984;3.538;2023-06-19T07:52:58;101335.47;;;23.25;54.65
47716;BME280;33476;50.984;3.538;2023-06-19T07:55:23;101330.25;;;23.33;54.83
47716;BME280;33476;50.984;3.538;2023-06-19T07:57:49;101340.34;;;23.39;54.52
47716;BME280;33476;50.984;3.538;2023-06-19T08:00:15;101348.47;;;23.47;54.23
47716;BME280;33476;50.984;3.538;2023-06-19T08:02:41;101350.41;;;23.65;54.16
47716;BME280;33476;50.984;3.538;2023-06-19T08:05:08;101353.16;;;23.82;53.71
47716;BME280;33476;50.984;3.538;2023-06-19T08:07:34;101352.69;;;23.97;53.10
47716;BME280;33476;50.984;3.538;2023-06-19T08:09:59;101358.81;;;24.07;53.16
47716;BME280;33476;50.984;3.538;2023-06-19T08:12:25;101355.44;;;24.05;52.63
47716;BME280;33476;50.984;3.538;2023-06-19T08:14:50;101357.50;;;23.93;52.74
47716;BME280;33476;50.984;3.538;2023-06-19T08:17:16;101355.66;;;23.94;52.68
47716;BME280;33476;50.984;3.538;2023-06-19T08:19:41;101360.03;;;23.85;52.83
47716;BME280;33476;50.984;3.538;2023-06-19T08:22:08;101368.47;;;23.80;53.01
47716;BME280;33476;50.984;3.538;2023-06-19T08:24:34;101363.25;;;23.89;53.12
47716;BME280;33476;50.984;3.538;2023-06-19T08:27:01;101358.31;;;23.94;52.31
47716;BME280;33476;50.984;3.538;2023-06-19T08:29:27;101359.84;;;23.96;52.18
47716;BME280;33476;50.984;3.538;2023-06-19T08:31:52;101362.19;;;24.09;52.12
47716;BME280;33476;50.984;3.538;2023-06-19T08:34:17;101357.56;;;24.29;51.45
47716;BME280;33476;50.984;3.538;2023-06-19T08:36:43;101357.63;;;24.47;51.16
47716;BME280;33476;50.984;3.538;2023-06-19T08:39:08;101361.38;;;24.72;50.82
47716;BME280;33476;50.984;3.538;2023-06-19T08:41:37;101358.34;;;24.84;50.04
47716;BME280;33476;50.984;3.538;2023-06-19T08:44:03;101360.78;;;24.96;49.94
47716;BME280;33476;50.984;3.538;2023-06-19T08:46:29;101363.41;;;25.05;49.36
47716;BME280;33476;50.984;3.538;2023-06-19T08:48:55;101363.22;;;25.07;49.29
47716;BME280;33476;50.984;3.538;2023-06-19T08:51:20;101357.59;;;25.10;48.83
47716;BME280;33476;50.984;3.538;2023-06-19T08:53:48;101364.28;;;25.14;49.31
47716;BME280;33476;50.984;3.538;2023-06-19T08:56:16;101367.81;;;25.32;48.81
47716;BME280;33476;50.984;3.538;2023-06-19T08:58:42;101371.66;;;25.38;48.34
47716;BME280;33476;50.984;3.538;2023-06-19T09:01:07;101374.28;;;25.30;48.01
47716;BME280;33476;50.984;3.538;2023-06-19T09:03:33;101375.53;;;25.17;48.66
47716;BME280;33476;50.984;3.538;2023-06-19T09:06:06;101374.47;;;25.10;48.54
47716;BME280;33476;50.984;3.538;2023-06-19T09:08:32;101382.25;;;25.04;48.56
47716;BME280;33476;50.984;3.538;2023-06-19T09:10:58;101375.66;;;24.98;48.84
47716;BME280;33476;50.984;3.538;2023-06-19T09:13:24;101375.31;;;25.11;48.94
47716;BME280;33476;50.984;3.538;2023-06-19T09:16:00;101370.81;;;25.37;49.07
47716;BME280;33476;50.984;3.538;2023-06-19T09:18:29;101380.00;;;25.61;48.10
47716;BME280;33476;50.984;3.538;2023-06-19T09:20:54;101386.16;;;25.79;48.49
47716;BME280;33476;50.984;3.538;2023-06-19T09:23:20;101379.03;;;25.88;47.30
47716;BME280;33476;50.984;3.538;2023-06-19T09:25:50;101386.41;;;25.94;47.24
47716;BME280;33476;50.984;3.538;2023-06-19T09:28:23;101384.94;;;25.99;46.53
47716;BME280;33476;50.984;3.538;2023-06-19T09:31:02;101380.63;;;26.07;46.58
47716;BME280;33476;50.984;3.538;2023-06-19T09:33:32;101378.88;;;26.23;46.96
47716;BME280;33476;50.984;3.538;2023-06-19T09:35:59;101375.34;;;26.31;46.34
47716;BME280;33476;50.984;3.538;2023-06-19T09:38:45;101373.38;;;26.33;46.51
47716;BME280;33476;50.984;3.538;2023-06-19T09:41:12;101377.78;;;26.42;46.18
47716;BME280;33476;50.984;3.538;2023-06-19T09:43:42;101375.44;;;26.55;45.38
47716;BME280;33476;50.984;3.538;2023-06-19T09:46:09;101383.38;;;26.73;45.98
47716;BME280;33476;50.984;3.538;2023-06-19T09:48:41;101375.47;;;26.72;45.55
47716;BME280;33476;50.984;3.538;2023-06-19T09:51:20;101376.00;;;26.67;45.61
47716;BME280;33476;50.984;3.538;2023-06-19T09:53:47;101367.63;;;26.86;45.11
47716;BME280;33476;50.984;3.538;2023-06-19T09:56:14;101366.16;;;27.08;45.45
47716;BME280;33476;50.984;3.538;2023-06-19T09:58:41;101366.66;;;27.28;44.16
47716;BME280;33476;50.984;3.538;2023-06-19T10:01:07;101371.81;;;27.46;43.56
47716;BME280;33476;50.984;3.538;2023-06-19T10:03:34;101367.63;;;27.52;43.15
47716;BME280;33476;50.984;3.538;2023-06-19T10:06:01;101366.94;;;27.66;43.38
47716;BME280;33476;50.984;3.538;2023-06-19T10:08:31;101366.94;;;27.74;42.79
47716;BME280;33476;50.984;3.538;2023-06-19T10:10:57;101370.78;;;27.63;43.14
47716;BME280;33476;50.984;3.538;2023-06-19T10:13:34;101369.78;;;27.64;44.03
47716;BME280;33476;50.984;3.538;2023-06-19T10:16:00;101370.28;;;27.76;43.28
47716;BME280;33476;50.984;3.538;2023-06-19T10:18:25;101368.59;;;27.83;43.47
47716;BME280;33476;50.984;3.538;2023-06-19T10:20:53;101368.16;;;28.03;43.39
47716;BME280;33476;50.984;3.538;2023-06-19T10:23:23;101366.94;;;28.13;42.34
47716;BME280;33476;50.984;3.538;2023-06-19T10:25:57;101370.97;;;28.17;42.54
47716;BME280;33476;50.984;3.538;2023-06-19T10:28:29;101364.28;;;28.05;41.56
47716;BME280;33476;50.984;3.538;2023-06-19T10:31:06;101362.50;;;27.97;42.44
47716;BME280;33476;50.984;3.538;2023-06-19T10:33:33;101364.25;;;28.13;41.94
47716;BME280;33476;50.984;3.538;2023-06-19T10:36:20;101362.72;;;28.19;41.87
47716;BME280;33476;50.984;3.538;2023-06-19T10:38:48;101367.38;;;28.33;41.21
47716;BME280;33476;50.984;3.538;2023-06-19T10:41:18;101371.59;;;28.19;41.56
47716;BME280;33476;50.984;3.538;2023-06-19T10:46:23;101358.91;;;28.05;42.09
47716;BME280;33476;50.984;3.538;2023-06-19T10:48:49;101362.78;;;28.03;42.50
47716;BME280;33476;50.984;3.538;2023-06-19T10:51:21;101357.94;;;28.06;42.04
47716;BME280;33476;50.984;3.538;2023-06-19T10:53:46;101357.25;;;28.04;42.04
47716;BME280;33476;50.984;3.538;2023-06-19T10:56:12;101361.97;;;28.02;41.84
47716;BME280;33476;50.984;3.538;2023-06-19T10:58:37;101373.56;;;27.94;41.61
47716;BME280;33476;50.984;3.538;2023-06-19T11:01:02;101361.81;;;27.95;41.91
47716;BME280;33476;50.984;3.538;2023-06-19T11:03:28;101368.78;;;28.13;41.58
47716;BME280;33476;50.984;3.538;2023-06-19T11:05:54;101353.59;;;28.36;41.59
47716;BME280;33476;50.984;3.538;2023-06-19T11:08:21;101368.34;;;28.40;40.48
47716;BME280;33476;50.984;3.538;2023-06-19T11:10:47;101355.16;;;28.31;40.93
47716;BME280;33476;50.984;3.538;2023-06-19T11:13:15;101362.16;;;28.40;40.71
47716;BME280;33476;50.984;3.538;2023-06-19T11:15:41;101369.38;;;28.39;40.65
47716;BME280;33476;50.984;3.538;2023-06-19T11:18:06;101367.53;;;28.40;40.84
47716;BME280;33476;50.984;3.538;2023-06-19T11:20:43;101370.25;;;28.23;40.39
47716;BME280;33476;50.984;3.538;2023-06-19T11:23:08;101358.88;;;28.13;41.04
47716;BME280;33476;50.984;3.538;2023-06-19T11:25:38;101364.94;;;28.15;41.43
47716;BME280;33476;50.984;3.538;2023-06-19T11:28:05;101364.53;;;28.26;40.89
47716;BME280;33476;50.984;3.538;2023-06-19T11:30:35;101378.97;;;28.25;41.08
47716;BME280;33476;50.984;3.538;2023-06-19T11:33:00;101375.09;;;28.28;41.83
47716;BME280;33476;50.984;3.538;2023-06-19T11:35:33;101360.25;;;28.48;40.93
47716;BME280;33476;50.984;3.538;2023-06-19T11:38:02;101362.97;;;28.40;40.07
47716;BME280;33476;50.984;3.538;2023-06-19T11:40:27;101369.56;;;28.30;40.00
47716;BME280;33476;50.984;3.538;2023-06-19T11:42:54;101360.41;;;28.16;40.85
47716;BME280;33476;50.984;3.538;2023-06-19T11:45:21;101366.94;;;28.13;39.92
47716;BME280;33476;50.984;3.538;2023-06-19T11:47:47;101359.84;;;28.20;40.29
47716;BME280;33476;50.984;3.538;2023-06-19T11:50:14;101361.50;;;28.30;40.79
47716;BME280;33476;50.984;3.538;2023-06-19T11:52:42;101365.34;;;28.35;39.92
47716;BME280;33476;50.984;3.538;2023-06-19T11:55:09;101348.34;;;28.43;40.68
47716;BME280;33476;50.984;3.538;2023-06-19T11:57:34;101348.81;;;28.46;40.39
47716;BME280;33476;50.984;3.538;2023-06-19T11:59:59;101350.28;;;28.57;39.88
47716;BME280;33476;50.984;3.538;2023-06-19T12:02:25;101345.19;;;28.62;39.29
47716;BME280;33476;50.984;3.538;2023-06-19T12:04:50;101346.09;;;28.77;38.45
47716;BME280;33476;50.984;3.538;2023-06-19T12:07:15;101344.84;;;28.65;38.02
47716;BME280;33476;50.984;3.538;2023-06-19T12:09:41;101353.94;;;28.64;38.74
47716;BME280;33476;50.984;3.538;2023-06-19T12:12:08;101345.31;;;28.69;38.96
47716;BME280;33476;50.984;3.538;2023-06-19T12:14:34;101351.06;;;28.66;38.49
47716;BME280;33476;50.984;3.538;2023-06-19T12:16:59;101342.22;;;28.80;38.22
47716;BME280;33476;50.984;3.538;2023-06-19T12:19:25;101333.13;;;28.81;38.30
47716;BME280;33476;50.984;3.538;2023-06-19T12:21:51;101343.25;;;28.56;38.10
47716;BME280;33476;50.984;3.538;2023-06-19T12:24:16;101345.47;;;28.44;38.45
47716;BME280;33476;50.984;3.538;2023-06-19T12:26:42;101334.31;;;28.33;38.87
47716;BME280;33476;50.984;3.538;2023-06-19T12:29:07;101336.34;;;28.31;38.95
47716;BME280;33476;50.984;3.538;2023-06-19T12:31:33;101335.38;;;28.46;38.71
47716;BME280;33476;50.984;3.538;2023-06-19T12:33:59;101332.50;;;28.56;38.50
47716;BME280;33476;50.984;3.538;2023-06-19T12:36:26;101321.06;;;28.77;38.33
47716;BME280;33476;50.984;3.538;2023-06-19T12:38:52;101321.00;;;28.85;38.13
47716;BME280;33476;50.984;3.538;2023-06-19T12:41:22;101325.13;;;28.96;38.43
47716;BME280;33476;50.984;3.538;2023-06-19T12:43:47;101323.03;;;28.83;37.83
47716;BME280;33476;50.984;3.538;2023-06-19T12:46:13;101318.63;;;28.90;37.65
47716;BME280;33476;50.984;3.538;2023-06-19T12:48:40;101318.84;;;29.03;36.97
47716;BME280;33476;50.984;3.538;2023-06-19T12:51:05;101311.59;;;29.04;36.54
47716;BME280;33476;50.984;3.538;2023-06-19T12:53:31;101307.31;;;28.95;36.31